createdAt,value
2022-12-28T00:01:43.765Z,5.70
2022-12-28T00:04:13.459Z,5.61
2022-12-28T00:06:40.276Z,5.54
2022-12-28T00:09:06.977Z,5.50
2022-12-28T00:11:33.769Z,5.55
2022-12-28T00:14:01.469Z,5.63
2022-12-28T00:16:32.343Z,5.63
2022-12-28T00:19:00.960Z,5.49
2022-12-28T00:21:28.589Z,5.57
2022-12-28T00:23:58.000Z,5.61
2022-12-28T00:26:26.928Z,5.50
2022-12-28T00:28:58.295Z,5.47
2022-12-28T00:31:27.075Z,5.46
2022-12-28T00:33:54.163Z,5.51
2022-12-28T00:36:20.973Z,5.54
2022-12-28T00:38:47.717Z,5.52
2022-12-28T00:41:14.451Z,5.51
2022-12-28T00:43:41.526Z,5.34
2022-12-28T00:46:09.358Z,5.39
2022-12-28T00:48:36.138Z,5.35
2022-12-28T00:51:14.376Z,5.47
2022-12-28T00:53:42.075Z,5.48
2022-12-28T00:56:12.554Z,5.55
2022-12-28T00:58:39.589Z,5.64
2022-12-28T01:01:12.008Z,5.67
2022-12-28T01:03:39.297Z,5.57
2022-12-28T01:06:07.369Z,5.53
2022-12-28T01:08:35.488Z,5.60
2022-12-28T01:11:08.776Z,5.52
2022-12-28T01:13:36.368Z,5.52
2022-12-28T01:16:35.213Z,5.51
2022-12-28T01:19:04.857Z,5.60
2022-12-28T01:21:33.739Z,5.66
2022-12-28T01:24:03.310Z,5.70
2022-12-28T01:26:30.517Z,5.85
2022-12-28T01:28:58.674Z,6.02
2022-12-28T01:31:26.456Z,6.17
2022-12-28T01:33:54.311Z,6.31
2022-12-28T01:36:23.899Z,6.42
2022-12-28T01:38:56.802Z,6.41
2022-12-28T01:41:25.512Z,6.38
2022-12-28T01:43:52.374Z,6.44
2022-12-28T01:46:40.389Z,6.49
2022-12-28T01:49:22.525Z,6.43
2022-12-28T01:52:12.787Z,6.31
2022-12-28T01:55:07.569Z,6.37
2022-12-28T01:57:45.717Z,6.33
2022-12-28T02:00:15.427Z,6.30
2022-12-28T02:02:49.570Z,6.21
2022-12-28T02:05:18.542Z,6.09
2022-12-28T02:07:53.671Z,5.93
2022-12-28T02:10:40.760Z,5.99
2022-12-28T02:13:10.426Z,5.92
2022-12-28T02:15:37.440Z,5.90
2022-12-28T02:18:04.542Z,5.84
2022-12-28T02:20:44.501Z,5.74
2022-12-28T02:23:20.369Z,5.66
2022-12-28T02:25:50.575Z,5.57
2022-12-28T02:28:29.393Z,5.53
2022-12-28T02:31:38.912Z,5.42
2022-12-28T02:34:16.758Z,5.41
2022-12-28T02:36:51.656Z,5.52
2022-12-28T02:39:26.652Z,5.59
2022-12-28T02:41:55.728Z,5.57
2022-12-28T02:44:42.367Z,5.57
2022-12-28T02:47:33.645Z,5.69
2022-12-28T02:50:06.918Z,5.62
2022-12-28T02:53:21.477Z,5.54
2022-12-28T02:56:09.274Z,5.64
2022-12-28T02:58:38.970Z,5.62
2022-12-28T03:01:40.103Z,5.62
2022-12-28T03:04:19.161Z,5.62
2022-12-28T03:07:10.886Z,5.62
2022-12-28T03:09:42.191Z,5.50
2022-12-28T03:12:29.716Z,5.33
2022-12-28T03:15:30.908Z,5.45
2022-12-28T03:18:30.809Z,5.35
2022-12-28T03:21:21.661Z,5.46
2022-12-28T03:24:08.680Z,5.39
2022-12-28T03:26:58.811Z,5.53
2022-12-28T03:29:46.184Z,5.54
2022-12-28T03:32:13.773Z,5.53
2022-12-28T03:34:41.158Z,5.48
2022-12-28T03:37:18.683Z,5.40
2022-12-28T03:39:53.304Z,5.36
2022-12-28T03:42:55.445Z,5.37
2022-12-28T03:46:19.653Z,5.24
2022-12-28T03:48:48.507Z,5.02
2022-12-28T03:51:19.844Z,4.91
2022-12-28T03:53:48.001Z,4.96
2022-12-28T03:56:21.328Z,4.93
2022-12-28T03:58:49.263Z,5.03
2022-12-28T04:01:16.210Z,4.96
2022-12-28T04:03:45.355Z,4.94
2022-12-28T04:06:18.420Z,4.97
2022-12-28T04:08:46.266Z,4.92
2022-12-28T04:11:14.111Z,4.83
2022-12-28T04:13:41.402Z,4.76
2022-12-28T04:16:12.348Z,4.74
2022-12-28T04:18:39.963Z,4.66
2022-12-28T04:21:06.949Z,4.55
2022-12-28T04:23:34.810Z,4.53
2022-12-28T04:26:11.815Z,4.50
2022-12-28T04:28:39.202Z,4.37
2022-12-28T04:31:08.079Z,4.30
2022-12-28T04:33:37.045Z,4.20
2022-12-28T04:36:09.480Z,4.13
2022-12-28T04:38:37.162Z,4.07
2022-12-28T04:41:06.138Z,4.08
2022-12-28T04:43:34.510Z,4.08
2022-12-28T04:46:04.695Z,4.13
2022-12-28T04:48:32.539Z,4.05
2022-12-28T04:50:59.662Z,4.07
2022-12-28T04:53:26.735Z,4.03
2022-12-28T04:55:54.049Z,4.07
2022-12-28T04:58:20.742Z,4.01
2022-12-28T05:00:47.719Z,3.90
2022-12-28T05:03:17.502Z,3.87
2022-12-28T05:05:44.284Z,3.88
2022-12-28T05:08:11.047Z,3.83
2022-12-28T05:10:37.844Z,3.88
2022-12-28T05:13:04.599Z,3.86
2022-12-28T05:15:31.400Z,3.85
2022-12-28T05:17:58.229Z,3.83
2022-12-28T05:20:24.989Z,3.88
2022-12-28T05:22:51.825Z,3.77
2022-12-28T05:25:18.546Z,3.83
2022-12-28T05:27:45.404Z,3.86
2022-12-28T05:30:12.364Z,3.89
2022-12-28T05:32:39.161Z,3.78
2022-12-28T05:35:06.308Z,3.76
2022-12-28T05:37:33.191Z,3.74
2022-12-28T05:39:59.935Z,3.62
2022-12-28T05:42:26.806Z,3.72
2022-12-28T05:44:53.398Z,3.70
2022-12-28T05:47:20.410Z,3.71
2022-12-28T05:49:47.730Z,3.77
2022-12-28T05:52:14.456Z,3.74
2022-12-28T05:54:41.135Z,3.69
2022-12-28T05:57:08.131Z,3.53
2022-12-28T05:59:35.124Z,3.67
2022-12-28T06:02:02.227Z,3.55
2022-12-28T06:04:29.078Z,3.70
2022-12-28T06:06:55.826Z,3.59
2022-12-28T06:09:22.608Z,3.60
2022-12-28T06:11:49.303Z,3.56
2022-12-28T06:14:15.969Z,3.62
2022-12-28T06:16:43.472Z,3.76
2022-12-28T06:19:12.771Z,3.71
2022-12-28T06:21:40.372Z,3.70
2022-12-28T06:24:08.254Z,3.66
2022-12-28T06:26:36.386Z,3.59
2022-12-28T06:29:03.702Z,3.73
2022-12-28T06:31:33.618Z,3.72
2022-12-28T06:34:04.470Z,3.80
2022-12-28T06:36:40.732Z,3.81
2022-12-28T06:39:09.968Z,3.83
2022-12-28T06:41:37.589Z,3.88
2022-12-28T06:44:12.402Z,3.91
2022-12-28T06:46:39.740Z,3.94
2022-12-28T06:49:06.714Z,3.97
2022-12-28T06:51:42.454Z,4.01
2022-12-28T06:54:10.695Z,4.10
2022-12-28T06:56:37.934Z,4.09
2022-12-28T06:59:05.399Z,4.13
2022-12-28T07:01:41.116Z,4.10
2022-12-28T07:04:09.473Z,4.17
2022-12-28T07:06:41.585Z,4.23
2022-12-28T07:09:13.568Z,4.32
2022-12-28T07:11:41.216Z,4.24
2022-12-28T07:14:07.909Z,4.23
2022-12-28T07:19:00.869Z,4.47
2022-12-28T07:21:32.904Z,4.79
2022-12-28T07:24:00.078Z,4.78
2022-12-28T07:26:29.802Z,5.04
2022-12-28T07:28:58.441Z,5.08
2022-12-28T07:31:28.997Z,5.27
2022-12-28T07:33:57.854Z,5.31
2022-12-28T07:36:26.067Z,5.36
2022-12-28T07:38:53.285Z,5.52
2022-12-28T07:41:22.822Z,5.62
2022-12-28T07:43:49.680Z,5.67
2022-12-28T07:46:25.268Z,5.50
2022-12-28T07:48:53.103Z,5.80
2022-12-28T07:51:22.553Z,5.87
2022-12-28T07:53:51.562Z,5.91
2022-12-28T07:56:19.431Z,6.09
2022-12-28T07:58:55.440Z,6.16
2022-12-28T08:01:23.888Z,6.34
2022-12-28T08:03:55.550Z,6.46
2022-12-28T08:06:23.624Z,6.60
2022-12-28T08:08:51.366Z,6.75
2022-12-28T08:11:19.143Z,6.81
2022-12-28T08:13:46.629Z,6.85
2022-12-28T08:16:15.264Z,6.81
2022-12-28T08:18:42.762Z,6.97
2022-12-28T08:21:16.566Z,7.11
2022-12-28T08:23:43.932Z,7.14
2022-12-28T08:26:14.919Z,7.29
2022-12-28T08:28:43.491Z,7.48
2022-12-28T08:31:13.600Z,7.40
2022-12-28T08:33:40.461Z,7.51
2022-12-28T08:36:09.225Z,7.62
2022-12-28T08:38:37.716Z,7.77
2022-12-28T08:41:07.063Z,7.91
2022-12-28T08:43:34.820Z,8.06
2022-12-28T08:46:07.960Z,7.98
2022-12-28T08:48:35.451Z,7.80
2022-12-28T08:51:11.088Z,7.86
2022-12-28T08:53:38.836Z,7.83
2022-12-28T08:56:10.482Z,7.86
2022-12-28T08:58:38.463Z,7.67
2022-12-28T09:01:13.267Z,7.92
2022-12-28T09:03:42.570Z,7.85
2022-12-28T09:06:12.684Z,7.92
2022-12-28T09:08:42.317Z,8.09
2022-12-28T09:11:13.448Z,8.06
2022-12-28T09:13:40.939Z,8.26
2022-12-28T09:16:13.732Z,8.19
2022-12-28T09:18:42.195Z,8.27
2022-12-28T09:21:37.923Z,8.18
2022-12-28T09:24:06.461Z,8.37
2022-12-28T09:26:36.775Z,8.41
2022-12-28T09:29:42.241Z,8.39
2022-12-28T09:32:13.840Z,8.50
2022-12-28T09:34:47.615Z,8.42
2022-12-28T09:37:14.577Z,8.56
2022-12-28T09:39:41.433Z,8.69
2022-12-28T09:42:37.895Z,8.74
2022-12-28T09:45:13.729Z,8.80
2022-12-28T09:47:44.579Z,8.75
2022-12-28T09:50:17.459Z,8.92
2022-12-28T09:53:22.010Z,9.05
2022-12-28T09:55:57.757Z,9.05
2022-12-28T09:58:25.130Z,9.08
2022-12-28T10:00:56.116Z,9.07
2022-12-28T10:03:23.182Z,9.22
2022-12-28T10:05:52.325Z,9.19
2022-12-28T10:08:21.849Z,9.05
2022-12-28T10:10:50.508Z,8.98
2022-12-28T10:13:45.931Z,9.06
2022-12-28T10:16:17.923Z,8.91
2022-12-28T10:18:45.566Z,9.08
2022-12-28T10:21:20.400Z,8.94
2022-12-28T10:24:29.858Z,8.96
2022-12-28T10:26:47.154Z,8.72
2022-12-28T10:29:19.194Z,8.90
2022-12-28T10:32:06.834Z,8.89
2022-12-28T10:34:36.149Z,8.89
2022-12-28T10:40:06.779Z,9.07
2022-12-28T10:42:42.773Z,9.10
2022-12-28T10:45:21.868Z,9.27
2022-12-28T10:47:54.775Z,9.29
2022-12-28T10:50:45.187Z,9.30
2022-12-28T10:53:29.784Z,9.30
2022-12-28T10:56:21.765Z,9.26
2022-12-28T10:58:53.631Z,9.36
2022-12-28T11:01:27.157Z,9.48
2022-12-28T11:03:20.624Z,8.96
2022-12-28T11:03:57.077Z,9.53
2022-12-28T11:06:30.773Z,9.53
2022-12-28T11:09:06.834Z,9.61
2022-12-28T11:11:36.190Z,9.63
2022-12-28T11:14:24.126Z,9.56
2022-12-28T11:16:51.417Z,9.56
2022-12-28T11:19:18.827Z,9.38
2022-12-28T11:21:46.190Z,9.31
2022-12-28T11:24:17.978Z,9.37
2022-12-28T11:26:49.392Z,9.33
2022-12-28T11:29:18.399Z,9.31
2022-12-28T11:31:51.962Z,9.39
2022-12-28T11:34:23.558Z,9.52
2022-12-28T11:36:50.795Z,9.36
2022-12-28T11:39:26.656Z,9.56
2022-12-28T11:44:42.014Z,9.44
2022-12-28T11:47:33.239Z,9.38
2022-12-28T11:50:34.237Z,9.31
2022-12-28T11:53:02.246Z,9.22
2022-12-28T11:55:43.140Z,9.24
2022-12-28T11:58:31.866Z,9.24
2022-12-28T12:01:00.264Z,9.21
2022-12-28T12:03:58.172Z,9.30
2022-12-28T12:06:45.256Z,9.34
2022-12-28T12:09:21.264Z,9.47
2022-12-28T12:11:50.364Z,9.52
2022-12-28T12:14:23.605Z,9.50
2022-12-28T12:16:54.038Z,9.56
2022-12-28T12:19:25.762Z,9.60
2022-12-28T12:22:18.830Z,9.75
2022-12-28T12:24:55.373Z,9.73
2022-12-28T12:27:47.585Z,9.84
2022-12-28T12:30:17.504Z,9.75
2022-12-28T12:32:56.560Z,9.86
2022-12-28T12:35:29.711Z,9.95
2022-12-28T12:38:01.261Z,9.88
2022-12-28T12:40:55.497Z,9.97
2022-12-28T12:43:47.056Z,9.96
2022-12-28T12:46:35.552Z,9.94
2022-12-28T12:49:30.217Z,9.88
2022-12-28T12:52:12.623Z,9.85
2022-12-28T12:54:39.221Z,9.80
2022-12-28T12:57:18.383Z,9.72
2022-12-28T12:59:45.273Z,9.72
2022-12-28T13:02:12.376Z,9.71
2022-12-28T13:04:46.281Z,9.75
2022-12-28T13:07:27.805Z,9.77
2022-12-28T13:09:58.984Z,9.81
2022-12-28T13:12:25.889Z,9.82
2022-12-28T13:15:17.165Z,9.67
2022-12-28T13:18:43.106Z,9.79
2022-12-28T13:20:58.410Z,9.75
2022-12-28T13:23:27.228Z,9.73
2022-12-28T13:25:56.651Z,9.64
2022-12-28T13:28:36.084Z,9.76
2022-12-28T13:31:25.833Z,9.68
2022-12-28T13:34:02.494Z,9.71
2022-12-28T13:36:29.458Z,9.73
2022-12-28T13:39:11.794Z,9.70
2022-12-28T13:41:47.225Z,9.68
2022-12-28T13:44:32.596Z,9.69
2022-12-28T13:47:20.737Z,9.66
2022-12-28T13:49:51.426Z,9.57
2022-12-28T13:52:27.222Z,9.49
2022-12-28T13:55:00.121Z,9.50
2022-12-28T13:57:50.068Z,9.52
2022-12-28T14:00:20.046Z,9.49
2022-12-28T14:02:48.582Z,9.48
2022-12-28T14:05:18.751Z,9.43
2022-12-28T14:07:47.555Z,9.35
2022-12-28T14:10:15.625Z,9.14
2022-12-28T14:12:50.650Z,9.18
2022-12-28T14:15:18.636Z,9.01
2022-12-28T14:17:46.838Z,8.99
2022-12-28T14:20:14.130Z,8.83
2022-12-28T14:22:41.787Z,8.75
2022-12-28T14:25:15.304Z,8.69
2022-12-28T14:27:46.820Z,8.60
2022-12-28T14:30:32.929Z,8.51
2022-12-28T14:33:11.555Z,8.37
2022-12-28T14:35:52.971Z,8.37
2022-12-28T14:38:23.082Z,8.31
2022-12-28T14:40:55.586Z,8.22
2022-12-28T14:43:28.882Z,8.13
2022-12-28T14:46:07.718Z,8.12
2022-12-28T14:48:43.139Z,8.12
2022-12-28T14:51:17.487Z,7.97
2022-12-28T14:53:45.575Z,7.93
2022-12-28T14:56:19.935Z,7.86
2022-12-28T14:58:54.845Z,7.84
2022-12-28T15:01:22.907Z,7.78
2022-12-28T15:04:00.695Z,7.80
2022-12-28T15:06:29.956Z,7.79
2022-12-28T15:08:59.090Z,7.77
2022-12-28T15:11:28.700Z,7.81
2022-12-28T15:13:57.778Z,7.81
2022-12-28T15:16:24.871Z,7.72
2022-12-28T15:18:53.130Z,7.68
2022-12-28T15:21:23.709Z,7.69
2022-12-28T15:23:52.364Z,7.70
2022-12-28T15:26:20.333Z,7.66
2022-12-28T15:28:47.427Z,7.60
2022-12-28T15:31:18.197Z,7.49
2022-12-28T15:33:45.803Z,7.42
2022-12-28T15:36:17.835Z,7.31
2022-12-28T15:38:46.674Z,7.31
2022-12-28T15:41:32.462Z,7.22
2022-12-28T15:43:59.322Z,7.18
2022-12-28T15:46:26.117Z,7.12
2022-12-28T15:48:53.607Z,7.08
2022-12-28T15:51:20.540Z,7.03
2022-12-28T15:53:47.513Z,6.97
2022-12-28T15:56:34.903Z,6.92
2022-12-28T15:59:03.851Z,6.79
2022-12-28T16:01:35.042Z,6.77
2022-12-28T16:04:03.654Z,6.73
2022-12-28T16:06:35.917Z,6.68
2022-12-28T16:09:08.678Z,6.67
2022-12-28T16:11:35.728Z,6.59
2022-12-28T16:14:04.709Z,6.64
2022-12-28T16:16:35.656Z,6.47
2022-12-28T16:19:03.308Z,6.35
2022-12-28T16:21:30.904Z,6.34
2022-12-28T16:23:59.999Z,6.29
2022-12-28T16:26:27.583Z,6.16
2022-12-28T16:28:55.084Z,6.18
2022-12-28T16:31:34.631Z,6.17
2022-12-28T16:34:07.198Z,6.12
2022-12-28T16:36:35.898Z,6.06
2022-12-28T16:39:06.434Z,6.02
2022-12-28T16:41:37.337Z,5.98
2022-12-28T16:44:13.037Z,5.97
2022-12-28T16:46:39.998Z,5.92
2022-12-28T16:49:07.322Z,5.88
2022-12-28T16:51:34.229Z,5.84
2022-12-28T16:54:01.141Z,5.75
2022-12-28T16:56:28.187Z,5.76
2022-12-28T16:58:57.918Z,5.83
2022-12-28T17:01:25.530Z,5.82
2022-12-28T17:03:52.631Z,5.85
2022-12-28T17:06:19.979Z,5.82
2022-12-28T17:08:47.480Z,5.67
2022-12-28T17:11:15.007Z,5.72
2022-12-28T17:13:42.175Z,5.72
2022-12-28T17:16:09.304Z,5.75
2022-12-28T17:18:40.388Z,5.77
2022-12-28T17:21:10.555Z,5.72
2022-12-28T17:23:43.372Z,5.65
2022-12-28T17:26:10.705Z,5.61
2022-12-28T17:28:39.432Z,5.60
2022-12-28T17:31:10.645Z,5.55
2022-12-28T17:33:40.065Z,5.48
2022-12-28T17:36:08.847Z,5.36
2022-12-28T17:38:36.944Z,5.30
2022-12-28T17:41:13.233Z,5.20
2022-12-28T17:43:47.850Z,5.01
2022-12-28T17:46:18.935Z,4.98
2022-12-28T17:48:46.805Z,4.91
2022-12-28T17:51:14.575Z,4.80
2022-12-28T17:53:41.900Z,4.70
2022-12-28T17:56:12.637Z,4.65
2022-12-28T17:58:41.693Z,4.59
2022-12-28T18:01:09.371Z,4.51
2022-12-28T18:03:38.565Z,4.38
2022-12-28T18:06:06.258Z,4.36
2022-12-28T18:08:33.731Z,4.31
2022-12-28T18:11:00.662Z,4.26
2022-12-28T18:13:27.840Z,4.23
2022-12-28T18:15:54.980Z,4.01
2022-12-28T18:18:22.647Z,3.93
2022-12-28T18:21:00.384Z,3.78
2022-12-28T18:23:28.443Z,3.68
2022-12-28T18:26:08.992Z,3.72
2022-12-28T18:28:36.753Z,3.52
2022-12-28T18:31:05.583Z,3.52
2022-12-28T18:33:34.487Z,3.51
2022-12-28T18:36:08.066Z,3.59
2022-12-28T18:38:40.529Z,3.58
2022-12-28T18:41:07.312Z,3.45
2022-12-28T18:43:35.392Z,3.34
2022-12-28T18:46:03.377Z,3.27
2022-12-28T18:48:31.004Z,3.26
2022-12-28T18:51:03.963Z,3.27
2022-12-28T18:53:31.606Z,3.28
2022-12-28T18:56:06.325Z,3.27
2022-12-28T18:58:35.843Z,3.19
2022-12-28T19:01:55.346Z,3.26
2022-12-28T19:04:07.750Z,3.35
2022-12-28T19:06:35.329Z,3.35
2022-12-28T19:09:03.969Z,3.35
2022-12-28T19:11:31.165Z,3.36
2022-12-28T19:13:57.915Z,3.29
2022-12-28T19:16:30.916Z,3.35
2022-12-28T19:18:59.172Z,3.34
2022-12-28T19:21:30.719Z,3.32
2022-12-28T19:24:00.826Z,3.28
2022-12-28T19:26:27.666Z,3.33
2022-12-28T19:28:54.559Z,3.31
2022-12-28T19:31:21.592Z,3.26
2022-12-28T19:33:48.405Z,3.34
2022-12-28T19:36:15.336Z,3.31
2022-12-28T19:38:42.408Z,3.26
2022-12-28T19:41:11.700Z,3.33
2022-12-28T19:43:38.601Z,3.36
2022-12-28T19:46:08.749Z,3.48
2022-12-28T19:48:35.681Z,3.44
2022-12-28T19:51:02.610Z,3.36
2022-12-28T19:53:29.645Z,3.32
2022-12-28T19:56:12.657Z,3.35
2022-12-28T19:58:40.375Z,3.35
2022-12-28T20:01:10.980Z,3.32
2022-12-28T20:03:38.768Z,3.32
2022-12-28T20:06:29.908Z,3.35
2022-12-28T20:09:01.249Z,3.38
2022-12-28T20:11:29.792Z,3.36
2022-12-28T20:13:59.607Z,3.38
2022-12-28T20:16:29.398Z,3.41
2022-12-28T20:18:56.325Z,3.44
2022-12-28T20:21:25.171Z,3.40
2022-12-28T20:23:53.427Z,3.39
2022-12-28T20:26:22.690Z,3.34
2022-12-28T20:28:51.047Z,3.38
2022-12-28T20:31:18.391Z,3.39
2022-12-28T20:33:46.332Z,3.35
2022-12-28T20:36:16.239Z,3.30
2022-12-28T20:38:43.339Z,3.39
2022-12-28T20:41:35.451Z,3.35
2022-12-28T20:44:07.212Z,3.28
2022-12-28T20:46:34.353Z,3.28
2022-12-28T20:49:01.335Z,3.27
2022-12-28T20:51:28.455Z,3.24
2022-12-28T20:53:55.531Z,3.16
2022-12-28T20:56:25.243Z,3.04
2022-12-28T20:58:52.184Z,3.07
2022-12-28T21:01:19.485Z,3.01
2022-12-28T21:03:47.052Z,3.00
2022-12-28T21:06:14.152Z,3.01
2022-12-28T21:08:41.106Z,2.96
2022-12-28T21:11:08.132Z,3.00
2022-12-28T21:13:39.286Z,3.02
2022-12-28T21:16:09.744Z,3.02
2022-12-28T21:18:37.061Z,3.08
2022-12-28T21:21:04.367Z,3.12
2022-12-28T21:23:32.149Z,3.13
2022-12-28T21:26:03.828Z,3.16
2022-12-28T21:28:31.316Z,3.17
2022-12-28T21:30:58.522Z,3.27
2022-12-28T21:33:25.549Z,3.22
2022-12-28T21:36:07.375Z,3.25
2022-12-28T21:38:38.256Z,3.30
2022-12-28T21:41:11.045Z,3.28
2022-12-28T21:43:37.992Z,3.29
2022-12-28T21:46:11.295Z,3.28
2022-12-28T21:48:38.901Z,3.29
2022-12-28T21:51:31.638Z,3.35
2022-12-28T21:54:00.226Z,3.35
2022-12-28T21:56:27.795Z,3.32
2022-12-28T21:58:57.630Z,3.36
2022-12-28T22:01:43.570Z,3.40
2022-12-28T22:04:34.332Z,3.43
2022-12-28T22:07:01.235Z,3.42
2022-12-28T22:09:46.647Z,3.36
2022-12-28T22:12:34.169Z,3.42
2022-12-28T22:15:39.911Z,3.34
2022-12-28T22:18:44.520Z,3.26
2022-12-28T22:21:05.542Z,3.23
2022-12-28T22:23:34.805Z,3.22
2022-12-28T22:26:01.844Z,3.24
2022-12-28T22:28:28.718Z,3.27
2022-12-28T22:30:56.341Z,3.29
2022-12-28T22:33:23.220Z,3.25
2022-12-28T22:35:50.584Z,3.18
2022-12-28T22:38:17.511Z,3.21
2022-12-28T22:40:44.748Z,3.33
2022-12-28T22:43:11.480Z,3.26
2022-12-28T22:45:38.492Z,3.32
2022-12-28T22:48:05.747Z,3.28
2022-12-28T22:50:35.720Z,3.19
2022-12-28T22:53:05.195Z,3.21
2022-12-28T22:55:32.244Z,3.20
2022-12-28T22:58:02.063Z,3.16
2022-12-28T23:00:28.916Z,3.22
2022-12-28T23:02:56.017Z,3.23
2022-12-28T23:05:22.878Z,3.20
2022-12-28T23:07:49.979Z,3.13
2022-12-28T23:10:17.003Z,3.06
2022-12-28T23:12:44.022Z,3.02
2022-12-28T23:15:19.083Z,3.00
2022-12-28T23:17:48.649Z,3.04
2022-12-28T23:20:34.082Z,3.06
2022-12-28T23:23:19.937Z,3.08
2022-12-28T23:26:05.654Z,2.98
2022-12-28T23:28:36.154Z,2.98
2022-12-28T23:31:03.853Z,2.98
2022-12-28T23:33:31.574Z,2.95
2022-12-28T23:36:02.802Z,2.85
2022-12-28T23:38:31.539Z,2.83
2022-12-28T23:41:16.710Z,2.75
2022-12-28T23:43:43.668Z,2.65
2022-12-28T23:46:10.531Z,2.62
2022-12-28T23:48:37.510Z,2.62
2022-12-28T23:51:11.408Z,2.45
2022-12-28T23:53:38.223Z,2.36
2022-12-28T23:56:05.291Z,2.35
2022-12-28T23:58:32.281Z,2.27
